sensor_id;sensor_type;location;lat;lon;timestamp;pressure;altitude;pressure_sealevel;temperature;humidity
6198;BME280;3132;42.622;23.328;2023-04-16T00:00:00;92311.97;;;9.78;72.31
6198;BME280;3132;42.622;23.328;2023-04-16T00:02:28;92257.69;;;9.43;71.80
6198;BME280;3132;42.622;23.328;2023-04-16T00:04:53;92293.31;;;9.47;72.85
6198;BME280;3132;42.622;23.328;2023-04-16T00:07:18;92302.56;;;9.58;72.89
6198;BME280;3132;42.622;23.328;2023-04-16T00:09:44;92315.13;;;9.75;72.00
6198;BME280;3132;42.622;23.328;2023-04-16T00:12:10;92308.94;;;9.71;72.27
6198;BME280;3132;42.622;23.328;2023-04-16T00:14:35;92305.56;;;9.89;71.10
6198;BME280;3132;42.622;23.328;2023-04-16T00:17:01;92304.03;;;9.88;71.63
6198;BME280;3132;42.622;23.328;2023-04-16T00:19:26;92303.28;;;9.82;72.66
6198;BME280;3132;42.622;23.328;2023-04-16T00:21:52;92298.78;;;9.69;74.45
6198;BME280;3132;42.622;23.328;2023-04-16T00:24:17;92292.72;;;9.74;75.01
6198;BME280;3132;42.622;23.328;2023-04-16T00:26:42;92297.28;;;9.63;75.03
6198;BME280;3132;42.622;23.328;2023-04-16T00:29:09;92297.41;;;9.53;74.97
6198;BME280;3132;42.622;23.328;2023-04-16T00:31:35;92295.47;;;9.64;74.24
6198;BME280;3132;42.622;23.328;2023-04-16T00:34:01;92294.47;;;9.60;74.15
6198;BME280;3132;42.622;23.328;2023-04-16T00:36:27;92290.19;;;9.69;73.79
6198;BME280;3132;42.622;23.328;2023-04-16T00:38:53;92296.88;;;9.75;73.70
6198;BME280;3132;42.622;23.328;2023-04-16T00:41:18;92290.75;;;9.66;73.25
6198;BME280;3132;42.622;23.328;2023-04-16T00:43:44;92277.34;;;9.54;73.04
6198;BME280;3132;42.622;23.328;2023-04-16T00:46:10;92288.31;;;9.51;73.91
6198;BME280;3132;42.622;23.328;2023-04-16T00:48:37;92272.72;;;9.27;74.94
6198;BME280;3132;42.622;23.328;2023-04-16T00:51:04;92281.19;;;9.38;76.28
6198;BME280;3132;42.622;23.328;2023-04-16T00:53:30;92277.81;;;9.37;75.75
6198;BME280;3132;42.622;23.328;2023-04-16T00:55:56;92284.91;;;9.32;76.45
6198;BME280;3132;42.622;23.328;2023-04-16T00:58:22;92282.41;;;9.22;76.93
6198;BME280;3132;42.622;23.328;2023-04-16T01:00:48;92289.19;;;9.23;76.56
6198;BME280;3132;42.622;23.328;2023-04-16T01:03:13;92295.53;;;9.35;74.68
6198;BME280;3132;42.622;23.328;2023-04-16T01:05:39;92261.28;;;9.00;75.96
6198;BME280;3132;42.622;23.328;2023-04-16T01:08:05;92261.84;;;8.97;76.65
6198;BME280;3132;42.622;23.328;2023-04-16T01:10:30;92269.38;;;8.98;77.54
6198;BME280;3132;42.622;23.328;2023-04-16T01:12:56;92291.44;;;9.06;76.82
6198;BME280;3132;42.622;23.328;2023-04-16T01:15:21;92281.41;;;8.94;78.04
6198;BME280;3132;42.622;23.328;2023-04-16T01:17:47;92274.25;;;8.81;78.34
6198;BME280;3132;42.622;23.328;2023-04-16T01:20:12;92285.56;;;8.95;78.18
6198;BME280;3132;42.622;23.328;2023-04-16T01:22:37;92280.59;;;8.99;77.85
6198;BME280;3132;42.622;23.328;2023-04-16T01:25:03;92292.09;;;8.93;77.39
6198;BME280;3132;42.622;23.328;2023-04-16T01:27:29;92284.44;;;9.01;76.83
6198;BME280;3132;42.622;23.328;2023-04-16T01:29:55;92279.63;;;8.90;76.83
6198;BME280;3132;42.622;23.328;2023-04-16T01:32:21;92284.25;;;8.98;75.56
6198;BME280;3132;42.622;23.328;2023-04-16T01:34:46;92274.38;;;8.95;75.18
6198;BME280;3132;42.622;23.328;2023-04-16T01:37:11;92270.81;;;8.86;75.38
6198;BME280;3132;42.622;23.328;2023-04-16T01:39:37;92270.66;;;8.77;76.40
6198;BME280;3132;42.622;23.328;2023-04-16T01:42:02;92267.81;;;8.74;76.47
6198;BME280;3132;42.622;23.328;2023-04-16T01:44:28;92256.63;;;8.73;76.54
6198;BME280;3132;42.622;23.328;2023-04-16T01:46:55;92264.16;;;8.75;77.17
6198;BME280;3132;42.622;23.328;2023-04-16T01:49:20;92257.81;;;8.86;77.05
6198;BME280;3132;42.622;23.328;2023-04-16T01:51:46;92263.41;;;8.74;78.12
6198;BME280;3132;42.622;23.328;2023-04-16T01:54:11;92252.66;;;8.81;77.98
6198;BME280;3132;42.622;23.328;2023-04-16T01:56:37;92253.22;;;8.78;78.29
6198;BME280;3132;42.622;23.328;2023-04-16T01:59:02;92253.75;;;8.75;78.61
6198;BME280;3132;42.622;23.328;2023-04-16T02:01:28;92248.88;;;8.68;78.78
6198;BME280;3132;42.622;23.328;2023-04-16T02:03:53;92255.88;;;8.73;79.09
6198;BME280;3132;42.622;23.328;2023-04-16T02:06:18;92253.63;;;8.90;78.27
6198;BME280;3132;42.622;23.328;2023-04-16T02:08:44;92244.34;;;8.79;78.20
6198;BME280;3132;42.622;23.328;2023-04-16T02:11:09;92257.75;;;8.91;78.05
6198;BME280;3132;42.622;23.328;2023-04-16T02:13:35;92247.63;;;8.89;77.70
6198;BME280;3132;42.622;23.328;2023-04-16T02:16:00;92255.66;;;8.93;78.14
6198;BME280;3132;42.622;23.328;2023-04-16T02:18:26;92251.66;;;9.00;77.53
6198;BME280;3132;42.622;23.328;2023-04-16T02:20:52;92257.84;;;9.04;77.71
6198;BME280;3132;42.622;23.328;2023-04-16T02:23:17;92247.63;;;8.89;79.00
6198;BME280;3132;42.622;23.328;2023-04-16T02:25:44;92242.13;;;8.91;79.00
6198;BME280;3132;42.622;23.328;2023-04-16T02:28:14;92250.41;;;8.98;79.09
6198;BME280;3132;42.622;23.328;2023-04-16T02:30:40;92229.16;;;8.86;78.50
6198;BME280;3132;42.622;23.328;2023-04-16T02:33:07;92246.38;;;9.10;77.76
6198;BME280;3132;42.622;23.328;2023-04-16T02:35:33;92248.78;;;9.02;78.26
6198;BME280;3132;42.622;23.328;2023-04-16T02:37:59;92245.34;;;9.06;77.73
6198;BME280;3132;42.622;23.328;2023-04-16T02:40:25;92243.47;;;9.12;76.87
6198;BME280;3132;42.622;23.328;2023-04-16T02:42:51;92235.25;;;9.00;77.38
6198;BME280;3132;42.622;23.328;2023-04-16T02:45:17;92239.72;;;8.99;76.70
6198;BME280;3132;42.622;23.328;2023-04-16T02:47:42;92232.66;;;9.00;76.75
6198;BME280;3132;42.622;23.328;2023-04-16T02:50:08;92235.06;;;8.96;76.83
6198;BME280;3132;42.622;23.328;2023-04-16T02:52:33;92210.88;;;8.67;77.66
6198;BME280;3132;42.622;23.328;2023-04-16T02:54:59;92191.03;;;8.53;78.70
6198;BME280;3132;42.622;23.328;2023-04-16T02:57:24;92227.94;;;8.78;78.26
6198;BME280;3132;42.622;23.328;2023-04-16T02:59:50;92226.41;;;8.77;77.93
6198;BME280;3132;42.622;23.328;2023-04-16T03:02:15;92234.38;;;8.86;78.29
6198;BME280;3132;42.622;23.328;2023-04-16T03:04:41;92229.34;;;8.71;78.08
6198;BME280;3132;42.622;23.328;2023-04-16T03:07:07;92216.84;;;8.73;78.57
6198;BME280;3132;42.622;23.328;2023-04-16T03:09:33;92226.13;;;8.79;79.01
6198;BME280;3132;42.622;23.328;2023-04-16T03:12:00;92222.19;;;8.81;79.31
6198;BME280;3132;42.622;23.328;2023-04-16T03:14:29;92234.19;;;8.82;78.48
6198;BME280;3132;42.622;23.328;2023-04-16T03:16:55;92230.22;;;8.85;78.29
6198;BME280;3132;42.622;23.328;2023-04-16T03:19:20;92239.72;;;8.99;77.73
6198;BME280;3132;42.622;23.328;2023-04-16T03:21:46;92235.34;;;8.95;77.63
6198;BME280;3132;42.622;23.328;2023-04-16T03:24:11;92237.47;;;8.88;78.64
6198;BME280;3132;42.622;23.328;2023-04-16T03:26:37;92224.13;;;8.71;78.62
6198;BME280;3132;42.622;23.328;2023-04-16T03:29:02;92229.56;;;8.98;78.78
6198;BME280;3132;42.622;23.328;2023-04-16T03:31:28;92237.72;;;9.15;78.44
6198;BME280;3132;42.622;23.328;2023-04-16T03:33:53;92217.16;;;8.90;77.88
6198;BME280;3132;42.622;23.328;2023-04-16T03:36:18;92224.09;;;8.99;78.51
6198;BME280;3132;42.622;23.328;2023-04-16T03:38:44;92241.03;;;9.20;77.59
6198;BME280;3132;42.622;23.328;2023-04-16T03:41:09;92232.00;;;9.13;77.84
6198;BME280;3132;42.622;23.328;2023-04-16T03:43:35;92214.00;;;8.93;77.53
6198;BME280;3132;42.622;23.328;2023-04-16T03:46:00;92240.38;;;9.10;76.73
6198;BME280;3132;42.622;23.328;2023-04-16T03:48:26;92247.13;;;9.11;76.03
6198;BME280;3132;42.622;23.328;2023-04-16T03:50:51;92244.19;;;9.17;76.55
6198;BME280;3132;42.622;23.328;2023-04-16T03:53:17;92243.06;;;9.00;78.46
6198;BME280;3132;42.622;23.328;2023-04-16T03:55:42;92246.03;;;8.93;79.16
6198;BME280;3132;42.622;23.328;2023-04-16T03:58:08;92246.78;;;8.94;79.39
6198;BME280;3132;42.622;23.328;2023-04-16T04:00:33;92231.38;;;8.74;79.24
6198;BME280;3132;42.622;23.328;2023-04-16T04:02:59;92246.16;;;8.78;80.57
6198;BME280;3132;42.622;23.328;2023-04-16T04:05:24;92254.22;;;8.82;80.18
6198;BME280;3132;42.622;23.328;2023-04-16T04:07:50;92254.66;;;8.89;80.54
6198;BME280;3132;42.622;23.328;2023-04-16T04:10:15;92253.84;;;8.93;80.88
6198;BME280;3132;42.622;23.328;2023-04-16T04:12:41;92260.88;;;8.93;81.24
6198;BME280;3132;42.622;23.328;2023-04-16T04:15:07;92252.44;;;9.01;80.36
6198;BME280;3132;42.622;23.328;2023-04-16T04:17:33;92255.34;;;8.99;80.83
6198;BME280;3132;42.622;23.328;2023-04-16T04:19:58;92261.91;;;9.15;80.03
6198;BME280;3132;42.622;23.328;2023-04-16T04:22:23;92255.06;;;9.01;80.57
6198;BME280;3132;42.622;23.328;2023-04-16T04:24:49;92265.91;;;9.08;80.83
6198;BME280;3132;42.622;23.328;2023-04-16T04:27:14;92280.03;;;9.25;80.12
6198;BME280;3132;42.622;23.328;2023-04-16T04:29:40;92266.22;;;9.25;80.71
6198;BME280;3132;42.622;23.328;2023-04-16T04:32:05;92264.19;;;9.22;80.45
6198;BME280;3132;42.622;23.328;2023-04-16T04:34:30;92280.06;;;9.44;80.06
6198;BME280;3132;42.622;23.328;2023-04-16T04:36:56;92276.53;;;9.35;80.00
6198;BME280;3132;42.622;23.328;2023-04-16T04:39:21;92289.09;;;9.28;81.00
6198;BME280;3132;42.622;23.328;2023-04-16T04:41:47;92273.47;;;9.28;80.34
6198;BME280;3132;42.622;23.328;2023-04-16T04:44:12;92283.34;;;9.31;79.86
6198;BME280;3132;42.622;23.328;2023-04-16T04:46:38;92289.66;;;9.48;79.46
6198;BME280;3132;42.622;23.328;2023-04-16T04:49:04;92299.75;;;9.55;79.68
6198;BME280;3132;42.622;23.328;2023-04-16T04:51:29;92285.44;;;9.52;75.48
6198;BME280;3132;42.622;23.328;2023-04-16T04:53:55;92269.31;;;9.50;74.68
6198;BME280;3132;42.622;23.328;2023-04-16T04:56:21;92274.59;;;9.64;76.28
6198;BME280;3132;42.622;23.328;2023-04-16T04:58:48;92296.25;;;9.64;76.89
6198;BME280;3132;42.622;23.328;2023-04-16T05:01:14;92280.88;;;9.63;76.84
6198;BME280;3132;42.622;23.328;2023-04-16T05:03:39;92279.75;;;9.69;76.60
6198;BME280;3132;42.622;23.328;2023-04-16T05:06:05;92295.13;;;9.89;76.02
6198;BME280;3132;42.622;23.328;2023-04-16T05:08:31;92294.56;;;9.92;76.53
6198;BME280;3132;42.622;23.328;2023-04-16T05:10:56;92274.22;;;9.94;75.21
6198;BME280;3132;42.622;23.328;2023-04-16T05:13:22;92294.03;;;10.14;73.60
6198;BME280;3132;42.622;23.328;2023-04-16T05:15:47;92287.56;;;10.11;73.02
6198;BME280;3132;42.622;23.328;2023-04-16T05:18:12;92287.09;;;10.23;73.82
6198;BME280;3132;42.622;23.328;2023-04-16T05:20:38;92286.91;;;10.38;73.25
6198;BME280;3132;42.622;23.328;2023-04-16T05:23:03;92283.50;;;10.37;72.80
6198;BME280;3132;42.622;23.328;2023-04-16T05:25:29;92288.00;;;10.50;73.21
6198;BME280;3132;42.622;23.328;2023-04-16T05:27:54;92269.97;;;10.67;72.09
6198;BME280;3132;42.622;23.328;2023-04-16T05:30:19;92272.09;;;10.79;71.77
6198;BME280;3132;42.622;23.328;2023-04-16T05:32:45;92295.66;;;10.92;71.14
6198;BME280;3132;42.622;23.328;2023-04-16T05:35:10;92295.66;;;10.92;70.13
6198;BME280;3132;42.622;23.328;2023-04-16T05:37:36;92253.97;;;10.55;69.80
6198;BME280;3132;42.622;23.328;2023-04-16T05:40:01;92297.84;;;10.85;69.19
6198;BME280;3132;42.622;23.328;2023-04-16T05:42:26;92291.47;;;10.91;68.69
6198;BME280;3132;42.622;23.328;2023-04-16T05:44:52;92293.22;;;10.96;67.34
6198;BME280;3132;42.622;23.328;2023-04-16T05:47:17;92297.47;;;10.92;66.83
6198;BME280;3132;42.622;23.328;2023-04-16T05:49:43;92300.38;;;10.90;68.72
6198;BME280;3132;42.622;23.328;2023-04-16T05:52:08;92295.34;;;10.48;68.59
6198;BME280;3132;42.622;23.328;2023-04-16T05:54:34;92295.94;;;10.91;67.54
6198;BME280;3132;42.622;23.328;2023-04-16T05:56:59;92297.53;;;11.19;66.46
6198;BME280;3132;42.622;23.328;2023-04-16T05:59:25;92301.97;;;11.32;66.53
6198;BME280;3132;42.622;23.328;2023-04-16T06:01:51;92301.78;;;11.28;66.27
6198;BME280;3132;42.622;23.328;2023-04-16T06:04:16;92284.19;;;11.34;65.66
6198;BME280;3132;42.622;23.328;2023-04-16T06:06:42;92300.16;;;11.73;64.24
6198;BME280;3132;42.622;23.328;2023-04-16T06:09:07;92299.25;;;11.91;64.21
6198;BME280;3132;42.622;23.328;2023-04-16T06:11:33;92292.53;;;12.34;63.38
6198;BME280;3132;42.622;23.328;2023-04-16T06:13:58;92287.09;;;12.44;62.79
6198;BME280;3132;42.622;23.328;2023-04-16T06:16:23;92294.97;;;12.09;63.74
6198;BME280;3132;42.622;23.328;2023-04-16T06:18:49;92247.63;;;11.97;63.47
6198;BME280;3132;42.622;23.328;2023-04-16T06:21:14;92290.56;;;12.18;64.29
6198;BME280;3132;42.622;23.328;2023-04-16T06:23:40;92286.97;;;12.71;61.04
6198;BME280;3132;42.622;23.328;2023-04-16T06:26:05;92280.44;;;12.38;61.52
6198;BME280;3132;42.622;23.328;2023-04-16T06:28:31;92258.69;;;12.38;61.80
6198;BME280;3132;42.622;23.328;2023-04-16T06:30:56;92284.78;;;12.95;61.00
6198;BME280;3132;42.622;23.328;2023-04-16T06:33:22;92290.59;;;13.45;58.70
6198;BME280;3132;42.622;23.328;2023-04-16T06:35:47;92276.63;;;13.58;58.39
6198;BME280;3132;42.622;23.328;2023-04-16T06:38:13;92289.00;;;13.66;57.37
6198;BME280;3132;42.622;23.328;2023-04-16T06:40:39;92279.13;;;13.72;57.25
6198;BME280;3132;42.622;23.328;2023-04-16T06:43:05;92260.78;;;13.33;57.74
6198;BME280;3132;42.622;23.328;2023-04-16T06:45:30;92266.66;;;13.86;55.67
6198;BME280;3132;42.622;23.328;2023-04-16T06:47:56;92294.41;;;13.78;56.65
6198;BME280;3132;42.622;23.328;2023-04-16T06:50:23;92289.31;;;13.73;55.99
6198;BME280;3132;42.622;23.328;2023-04-16T06:52:51;92244.78;;;13.43;56.39
6198;BME280;3132;42.622;23.328;2023-04-16T06:55:18;92310.66;;;13.89;56.53
6198;BME280;3132;42.622;23.328;2023-04-16T06:57:43;92293.81;;;13.81;57.18
6198;BME280;3132;42.622;23.328;2023-04-16T07:00:09;92295.53;;;13.38;58.07
6198;BME280;3132;42.622;23.328;2023-04-16T07:02:35;92298.41;;;13.67;57.22
6198;BME280;3132;42.622;23.328;2023-04-16T07:05:01;92299.84;;;13.82;56.96
6198;BME280;3132;42.622;23.328;2023-04-16T07:07:26;92288.22;;;13.74;58.59
6198;BME280;3132;42.622;23.328;2023-04-16T07:09:51;92307.00;;;14.07;56.35
6198;BME280;3132;42.622;23.328;2023-04-16T07:12:17;92292.34;;;13.58;56.68
6198;BME280;3132;42.622;23.328;2023-04-16T07:14:43;92304.75;;;12.61;60.38
6198;BME280;3132;42.622;23.328;2023-04-16T07:17:09;92312.13;;;13.25;59.00
6198;BME280;3132;42.622;23.328;2023-04-16T07:19:34;92291.63;;;13.66;56.85
6198;BME280;3132;42.622;23.328;2023-04-16T07:22:01;92303.81;;;13.79;57.33
6198;BME280;3132;42.622;23.328;2023-04-16T07:24:26;92298.53;;;14.35;54.90
6198;BME280;3132;42.622;23.328;2023-04-16T07:26:52;92307.38;;;14.39;55.37
6198;BME280;3132;42.622;23.328;2023-04-16T07:29:17;92299.13;;;13.51;57.18
6198;BME280;3132;42.622;23.328;2023-04-16T07:31:43;92302.88;;;14.48;54.25
6198;BME280;3132;42.622;23.328;2023-04-16T07:34:09;92307.81;;;14.59;53.34
6198;BME280;3132;42.622;23.328;2023-04-16T07:36:34;92288.97;;;14.39;53.43
6198;BME280;3132;42.622;23.328;2023-04-16T07:39:00;92288.81;;;14.36;54.36
6198;BME280;3132;42.622;23.328;2023-04-16T07:41:26;92293.75;;;14.63;53.93
6198;BME280;3132;42.622;23.328;2023-04-16T07:43:51;92309.19;;;14.90;53.06
6198;BME280;3132;42.622;23.328;2023-04-16T07:46:17;92313.84;;;14.59;54.37
6198;BME280;3132;42.622;23.328;2023-04-16T07:48:42;92304.66;;;13.97;54.70
6198;BME280;3132;42.622;23.328;2023-04-16T07:51:08;92296.69;;;14.44;52.96
6198;BME280;3132;42.622;23.328;2023-04-16T07:53:33;92318.63;;;14.74;53.30
6198;BME280;3132;42.622;23.328;2023-04-16T07:55:58;92303.94;;;14.90;52.24
6198;BME280;3132;42.622;23.328;2023-04-16T07:58:24;92300.06;;;15.05;50.83
6198;BME280;3132;42.622;23.328;2023-04-16T08:00:50;92308.75;;;14.80;52.69
6198;BME280;3132;42.622;23.328;2023-04-16T08:03:15;92312.97;;;15.44;52.10
6198;BME280;3132;42.622;23.328;2023-04-16T08:05:42;92299.50;;;14.57;53.52
6198;BME280;3132;42.622;23.328;2023-04-16T08:08:07;92284.78;;;14.56;53.78
6198;BME280;3132;42.622;23.328;2023-04-16T08:10:32;92284.34;;;14.36;54.93
6198;BME280;3132;42.622;23.328;2023-04-16T08:12:59;92298.97;;;14.80;52.86
6198;BME280;3132;42.622;23.328;2023-04-16T08:15:25;92310.28;;;14.89;53.06
6198;BME280;3132;42.622;23.328;2023-04-16T08:17:51;92316.06;;;15.29;52.44
6198;BME280;3132;42.622;23.328;2023-04-16T08:20:17;92290.38;;;14.63;52.10
6198;BME280;3132;42.622;23.328;2023-04-16T08:22:42;92300.94;;;13.89;55.43
6198;BME280;3132;42.622;23.328;2023-04-16T08:25:09;92284.88;;;13.35;57.25
6198;BME280;3132;42.622;23.328;2023-04-16T08:27:34;92262.97;;;13.95;56.61
6198;BME280;3132;42.622;23.328;2023-04-16T08:29:59;92295.94;;;14.44;56.29
6198;BME280;3132;42.622;23.328;2023-04-16T08:32:25;92298.00;;;13.91;56.95
6198;BME280;3132;42.622;23.328;2023-04-16T08:34:51;92298.84;;;14.77;55.83
6198;BME280;3132;42.622;23.328;2023-04-16T08:37:16;92282.63;;;14.75;53.25
6198;BME280;3132;42.622;23.328;2023-04-16T08:39:41;92303.69;;;15.38;51.69
6198;BME280;3132;42.622;23.328;2023-04-16T08:42:25;92290.41;;;15.26;51.79
6198;BME280;3132;42.622;23.328;2023-04-16T08:45:03;92279.78;;;15.60;51.27
6198;BME280;3132;42.622;23.328;2023-04-16T08:47:33;92291.06;;;15.98;50.20
6198;BME280;3132;42.622;23.328;2023-04-16T08:49:59;92267.31;;;15.40;50.49
6198;BME280;3132;42.622;23.328;2023-04-16T08:52:27;92287.78;;;15.72;50.32
6198;BME280;3132;42.622;23.328;2023-04-16T08:55:05;92279.81;;;16.09;49.38
6198;BME280;3132;42.622;23.328;2023-04-16T08:57:53;92269.47;;;15.46;49.89
6198;BME280;3132;42.622;23.328;2023-04-16T09:00:22;92234.88;;;14.56;53.25
6198;BME280;3132;42.622;23.328;2023-04-16T09:02:49;92285.03;;;15.05;52.64
6198;BME280;3132;42.622;23.328;2023-04-16T09:05:16;92279.91;;;15.09;51.83
6198;BME280;3132;42.622;23.328;2023-04-16T09:07:44;92280.88;;;15.50;51.04
6198;BME280;3132;42.622;23.328;2023-04-16T09:10:11;92293.47;;;15.82;49.38
6198;BME280;3132;42.622;23.328;2023-04-16T09:12:37;92288.78;;;15.88;49.67
6198;BME280;3132;42.622;23.328;2023-04-16T09:15:04;92265.09;;;15.50;49.07
6198;BME280;3132;42.622;23.328;2023-04-16T09:17:30;92289.16;;;15.40;49.00
6198;BME280;3132;42.622;23.328;2023-04-16T09:19:56;92280.63;;;15.43;49.68
6198;BME280;3132;42.622;23.328;2023-04-16T09:22:21;92275.00;;;14.99;49.12
6198;BME280;3132;42.622;23.328;2023-04-16T09:24:46;92278.53;;;15.11;49.08
6198;BME280;3132;42.622;23.328;2023-04-16T09:27:12;92275.81;;;15.37;47.58
6198;BME280;3132;42.622;23.328;2023-04-16T09:29:39;92281.88;;;15.75;45.01
6198;BME280;3132;42.622;23.328;2023-04-16T09:32:07;92279.69;;;15.77;46.54
6198;BME280;3132;42.622;23.328;2023-04-16T09:34:33;92277.59;;;15.62;49.76
6198;BME280;3132;42.622;23.328;2023-04-16T09:37:16;92280.22;;;15.62;46.52
6198;BME280;3132;42.622;23.328;2023-04-16T09:39:42;92264.97;;;15.47;48.31
6198;BME280;3132;42.622;23.328;2023-04-16T09:42:08;92260.53;;;15.39;50.13
6198;BME280;3132;42.622;23.328;2023-04-16T09:44:37;92270.75;;;16.19;45.69
6198;BME280;3132;42.622;23.328;2023-04-16T09:47:07;92274.84;;;15.87;46.86
6198;BME280;3132;42.622;23.328;2023-04-16T09:49:34;92259.63;;;15.93;46.60
6198;BME280;3132;42.622;23.328;2023-04-16T09:52:11;92271.66;;;16.02;47.79
6198;BME280;3132;42.622;23.328;2023-04-16T09:54:38;92260.88;;;16.16;46.85
6198;BME280;3132;42.622;23.328;2023-04-16T09:57:07;92263.19;;;16.38;52.07
6198;BME280;3132;42.622;23.328;2023-04-16T09:59:34;92257.81;;;15.85;48.82
6198;BME280;3132;42.622;23.328;2023-04-16T10:02:00;92201.69;;;15.06;48.88
6198;BME280;3132;42.622;23.328;2023-04-16T10:04:26;92247.03;;;15.32;48.78
6198;BME280;3132;42.622;23.328;2023-04-16T10:07:04;92253.69;;;15.38;49.42
6198;BME280;3132;42.622;23.328;2023-04-16T10:09:31;92248.72;;;14.99;48.92
6198;BME280;3132;42.622;23.328;2023-04-16T10:11:57;92252.38;;;15.15;48.78
6198;BME280;3132;42.622;23.328;2023-04-16T10:14:23;92245.78;;;15.00;49.44
6198;BME280;3132;42.622;23.328;2023-04-16T10:16:48;92240.13;;;15.65;48.22
6198;BME280;3132;42.622;23.328;2023-04-16T10:19:15;92231.75;;;16.13;46.97
6198;BME280;3132;42.622;23.328;2023-04-16T10:21:41;92234.41;;;15.92;46.96
6198;BME280;3132;42.622;23.328;2023-04-16T10:24:07;92235.78;;;16.19;46.55
6198;BME280;3132;42.622;23.328;2023-04-16T10:26:34;92235.75;;;16.39;46.85
6198;BME280;3132;42.622;23.328;2023-04-16T10:28:59;92219.84;;;16.15;46.75
6198;BME280;3132;42.622;23.328;2023-04-16T10:31:27;92232.16;;;16.64;49.48
6198;BME280;3132;42.622;23.328;2023-04-16T10:33:53;92226.28;;;16.79;45.67
6198;BME280;3132;42.622;23.328;2023-04-16T10:36:24;92230.03;;;16.37;47.84
6198;BME280;3132;42.622;23.328;2023-04-16T10:38:51;92231.97;;;16.69;45.88
6198;BME280;3132;42.622;23.328;2023-04-16T10:41:19;92228.94;;;16.38;46.61
6198;BME280;3132;42.622;23.328;2023-04-16T10:43:49;92225.19;;;16.48;46.83
6198;BME280;3132;42.622;23.328;2023-04-16T10:46:25;92218.94;;;16.52;46.92
6198;BME280;3132;42.622;23.328;2023-04-16T10:48:55;92229.91;;;17.19;44.81
6198;BME280;3132;42.622;23.328;2023-04-16T10:53:53;92231.44;;;17.20;44.90
6198;BME280;3132;42.622;23.328;2023-04-16T10:56:25;92222.72;;;17.20;44.34
6198;BME280;3132;42.622;23.328;2023-04-16T10:58:55;92206.69;;;17.01;44.14
6198;BME280;3132;42.622;23.328;2023-04-16T11:01:28;92220.69;;;16.81;44.29
6198;BME280;3132;42.622;23.328;2023-04-16T11:03:54;92223.09;;;16.53;46.00
6198;BME280;3132;42.622;23.328;2023-04-16T11:06:24;92220.84;;;16.96;45.59
6198;BME280;3132;42.622;23.328;2023-04-16T11:08:52;92222.59;;;17.04;45.18
6198;BME280;3132;42.622;23.328;2023-04-16T11:11:18;92210.50;;;17.03;44.93
6198;BME280;3132;42.622;23.328;2023-04-16T11:13:44;92209.41;;;17.04;44.60
6198;BME280;3132;42.622;23.328;2023-04-16T11:16:14;92220.00;;;17.16;44.94
6198;BME280;3132;42.622;23.328;2023-04-16T11:18:40;92189.88;;;17.17;44.33
6198;BME280;3132;42.622;23.328;2023-04-16T11:21:09;92209.47;;;17.40;43.78
6198;BME280;3132;42.622;23.328;2023-04-16T11:23:49;92212.13;;;16.84;44.88
6198;BME280;3132;42.622;23.328;2023-04-16T11:26:27;92204.13;;;16.92;45.81
6198;BME280;3132;42.622;23.328;2023-04-16T11:28:54;92194.59;;;17.36;45.12
6198;BME280;3132;42.622;23.328;2023-04-16T11:31:24;92205.41;;;17.67;46.23
6198;BME280;3132;42.622;23.328;2023-04-16T11:33:51;92187.72;;;17.68;48.07
6198;BME280;3132;42.622;23.328;2023-04-16T11:36:16;92192.75;;;17.85;50.42
6198;BME280;3132;42.622;23.328;2023-04-16T11:38:42;92185.91;;;17.96;45.64
6198;BME280;3132;42.622;23.328;2023-04-16T11:41:08;92180.63;;;17.35;50.45
6198;BME280;3132;42.622;23.328;2023-04-16T11:43:35;92181.63;;;17.31;51.22
6198;BME280;3132;42.622;23.328;2023-04-16T11:46:02;92177.03;;;17.40;51.39
6198;BME280;3132;42.622;23.328;2023-04-16T11:51:14;92174.53;;;17.55;53.40
6198;BME280;3132;42.622;23.328;2023-04-16T11:53:50;92171.00;;;17.76;56.13
6198;BME280;3132;42.622;23.328;2023-04-16T11:56:30;92166.53;;;18.04;52.81
6198;BME280;3132;42.622;23.328;2023-04-16T11:59:31;92167.44;;;17.23;55.04
6198;BME280;3132;42.622;23.328;2023-04-16T12:01:57;92148.13;;;17.68;50.97
6198;BME280;3132;42.622;23.328;2023-04-16T12:04:25;92147.81;;;17.57;49.56
6198;BME280;3132;42.622;23.328;2023-04-16T12:07:11;92151.28;;;17.25;52.17
6198;BME280;3132;42.622;23.328;2023-04-16T12:09:38;92151.84;;;17.30;48.79
6198;BME280;3132;42.622;23.328;2023-04-16T12:12:04;92137.44;;;17.04;47.75
6198;BME280;3132;42.622;23.328;2023-04-16T12:14:30;92141.88;;;18.00;48.70
6198;BME280;3132;42.622;23.328;2023-04-16T12:17:15;92143.47;;;17.04;46.37
6198;BME280;3132;42.622;23.328;2023-04-16T12:20:11;92139.75;;;16.93;48.15
6198;BME280;3132;42.622;23.328;2023-04-16T12:22:47;92141.50;;;17.37;49.16
6198;BME280;3132;42.622;23.328;2023-04-16T12:25:14;92143.88;;;17.91;47.94
6198;BME280;3132;42.622;23.328;2023-04-16T12:30:11;92127.38;;;16.61;51.09
6198;BME280;3132;42.622;23.328;2023-04-16T12:32:37;92112.03;;;16.75;51.49
6198;BME280;3132;42.622;23.328;2023-04-16T12:35:03;92131.50;;;17.19;53.46
6198;BME280;3132;42.622;23.328;2023-04-16T12:37:29;92124.69;;;17.30;52.46
6198;BME280;3132;42.622;23.328;2023-04-16T12:39:54;92117.63;;;16.74;51.18
6198;BME280;3132;42.622;23.328;2023-04-16T12:42:20;92103.78;;;16.89;50.85
6198;BME280;3132;42.622;23.328;2023-04-16T12:44:46;92117.59;;;16.29;50.64
6198;BME280;3132;42.622;23.328;2023-04-16T12:47:11;92118.00;;;16.19;57.23
6198;BME280;3132;42.622;23.328;2023-04-16T12:49:36;92079.19;;;15.95;53.63
6198;BME280;3132;42.622;23.328;2023-04-16T12:52:02;92090.75;;;16.03;52.57
6198;BME280;3132;42.622;23.328;2023-04-16T12:54:28;92111.34;;;16.01;51.00
6198;BME280;3132;42.622;23.328;2023-04-16T12:56:55;92112.38;;;16.41;50.77
6198;BME280;3132;42.622;23.328;2023-04-16T12:59:21;92105.13;;;16.38;52.40
6198;BME280;3132;42.622;23.328;2023-04-16T13:01:46;92104.63;;;16.45;52.61
6198;BME280;3132;42.622;23.328;2023-04-16T13:04:11;92093.91;;;16.41;51.74
6198;BME280;3132;42.622;23.328;2023-04-16T13:06:37;92085.19;;;16.49;51.51
6198;BME280;3132;42.622;23.328;2023-04-16T13:09:02;92094.41;;;15.90;50.94
6198;BME280;3132;42.622;23.328;2023-04-16T13:11:28;92082.59;;;15.96;51.24
6198;BME280;3132;42.622;23.328;2023-04-16T13:13:54;92087.03;;;15.83;52.69
6198;BME280;3132;42.622;23.328;2023-04-16T13:16:19;92104.56;;;15.59;52.85
6198;BME280;3132;42.622;23.328;2023-04-16T13:18:45;92102.31;;;15.20;56.10